Time;durP1;ratioP1;P1;durP2;ratioP2;P2;SDS_P1;SDS_P2;PMS_P1;PMS_P2;Temp;Humidity;BMP_temperature;BMP_pressure;BME280_temperature;BME280_humidity;BME280_pressure;Samples;Min_cycle;Max_cycle;Signal;HPM_P1;HPM_P2
2022/03/10 00:01:09;;;;;;;32.80;14.60;;;6.40;52.60;;;;;;5113946;28;20027;-64
2022/03/10 00:03:35;;;;;;;29.00;13.70;;;6.40;52.50;;;;;;5113895;28;20031;-64
2022/03/10 00:06:00;;;;;;;26.67;14.20;;;6.30;52.60;;;;;;5096022;28;20043;-64
2022/03/10 00:08:26;;;;;;;31.38;14.48;;;6.20;52.50;;;;;;5113710;28;20029;-64
2022/03/10 00:10:52;;;;;;;29.40;13.82;;;6.30;52.30;;;;;;5113778;28;20473;-64
2022/03/10 00:13:17;;;;;;;26.55;13.73;;;6.30;52.50;;;;;;5113717;28;20074;-64
2022/03/10 00:15:43;;;;;;;28.77;13.30;;;6.20;52.50;;;;;;5113692;28;20021;-64
2022/03/10 00:18:08;;;;;;;26.33;13.90;;;6.00;52.70;;;;;;5113664;28;20073;-64
2022/03/10 00:20:34;;;;;;;27.73;12.98;;;6.00;53.00;;;;;;5113744;28;20029;-64
2022/03/10 00:23:00;;;;;;;28.33;13.82;;;6.00;53.10;;;;;;5113588;28;20028;-64
2022/03/10 00:25:25;;;;;;;25.90;13.48;;;6.00;52.80;;;;;;5113517;28;20024;-64
2022/03/10 00:27:51;;;;;;;27.85;13.85;;;6.00;53.50;;;;;;5113526;28;20016;-64
2022/03/10 00:30:17;;;;;;;27.73;13.60;;;6.00;53.60;;;;;;5113441;28;20508;-64
2022/03/10 00:32:51;;;;;;;27.20;13.20;;;6.10;53.30;;;;;;5113471;28;20480;-64
2022/03/10 00:35:21;;;;;;;30.58;14.48;;;6.10;53.70;;;;;;5113434;28;20028;-64
2022/03/10 00:37:47;;;;;;;30.85;13.80;;;6.10;53.40;;;;;;5113467;28;20445;-64
2022/03/10 00:40:14;;;;;;;26.80;13.38;;;6.10;53.40;;;;;;5113381;28;20035;-64
2022/03/10 00:42:41;;;;;;;28.58;14.07;;;6.10;52.90;;;;;;5113366;28;20032;-64
2022/03/10 00:45:07;;;;;;;31.63;14.63;;;6.10;54.30;;;;;;5113307;28;20482;-64
2022/03/10 00:47:34;;;;;;;26.05;13.75;;;6.00;53.20;;;;;;5113345;28;20024;-64
2022/03/10 00:50:00;;;;;;;30.67;14.20;;;6.00;53.10;;;;;;5113231;28;20025;-64
2022/03/10 00:52:27;;;;;;;30.00;14.13;;;6.10;52.80;;;;;;5095548;28;20039;-64
2022/03/10 00:54:53;;;;;;;27.63;13.75;;;6.20;52.60;;;;;;5113388;28;20051;-64
2022/03/10 00:57:19;;;;;;;29.50;14.75;;;6.20;52.00;;;;;;5113093;28;20067;-64
2022/03/10 00:59:44;;;;;;;28.13;14.65;;;6.20;51.90;;;;;;5113202;28;20364;-64
2022/03/10 01:02:10;;;;;;;28.15;14.13;;;6.20;52.30;;;;;;5113184;28;20028;-64
2022/03/10 01:04:35;;;;;;;30.27;14.20;;;6.00;52.40;;;;;;5113151;28;20035;-64
2022/03/10 01:07:01;;;;;;;32.33;14.13;;;6.00;52.70;;;;;;5099185;28;20039;-64
2022/03/10 01:09:27;;;;;;;27.73;13.57;;;6.00;52.80;;;;;;5117138;28;20028;-64
2022/03/10 01:11:52;;;;;;;28.15;14.55;;;6.00;52.70;;;;;;5117169;28;20027;-64
2022/03/10 01:14:18;;;;;;;29.15;13.93;;;6.00;52.30;;;;;;5117118;28;20016;-64
2022/03/10 01:16:44;;;;;;;32.90;14.48;;;5.80;52.20;;;;;;5099028;28;20020;-64
2022/03/10 01:19:10;;;;;;;28.20;13.75;;;5.90;52.40;;;;;;5117029;28;20046;-64
2022/03/10 01:21:36;;;;;;;29.55;14.82;;;5.80;53.00;;;;;;5116997;28;20035;-64
2022/03/10 01:24:02;;;;;;;27.42;13.70;;;5.80;54.50;;;;;;5116866;28;20479;-64
2022/03/10 01:26:27;;;;;;;25.00;12.95;;;5.70;53.60;;;;;;5098840;28;20032;-64
2022/03/10 01:28:53;;;;;;;28.20;13.80;;;5.80;53.60;;;;;;5116886;28;20084;-64
2022/03/10 01:31:19;;;;;;;25.63;13.07;;;5.70;53.30;;;;;;5116789;28;20471;-64
2022/03/10 01:33:44;;;;;;;25.90;12.35;;;5.80;53.20;;;;;;5116741;28;20031;-64
2022/03/10 01:36:10;;;;;;;27.02;13.32;;;5.80;53.10;;;;;;5116672;28;20028;-64
2022/03/10 01:38:39;;;;;;;25.83;12.00;;;5.70;53.30;;;;;;5116664;28;20094;-64
2022/03/10 01:41:09;;;;;;;24.15;12.68;;;5.70;53.40;;;;;;5116656;28;20084;-64
2022/03/10 01:43:59;;;;;;;30.60;14.52;;;5.80;53.70;;;;;;5116581;28;20089;-64
2022/03/10 01:46:26;;;;;;;25.63;13.38;;;5.70;53.50;;;;;;5116713;28;20026;-64
2022/03/10 01:48:52;;;;;;;24.77;13.35;;;5.70;53.60;;;;;;5116413;28;20028;-64
2022/03/10 01:51:18;;;;;;;28.30;13.23;;;5.70;54.10;;;;;;5116395;28;20016;-64
2022/03/10 01:53:44;;;;;;;28.73;13.32;;;5.60;54.10;;;;;;5116388;28;20024;-64
2022/03/10 01:56:11;;;;;;;25.30;12.55;;;5.70;54.10;;;;;;5116179;28;20028;-65
2022/03/10 01:58:38;;;;;;;27.48;12.98;;;5.80;54.10;;;;;;5116387;28;20036;-64
2022/03/10 02:01:03;;;;;;;27.15;13.48;;;5.80;54.00;;;;;;5116273;28;20029;-64
2022/03/10 02:03:29;;;;;;;25.70;13.88;;;5.80;54.30;;;;;;5116231;28;20104;-64
2022/03/10 02:05:56;;;;;;;22.52;12.18;;;5.70;53.80;;;;;;5116167;28;20036;-64
2022/03/10 02:11:06;;;;;;;25.20;12.48;;;5.50;54.60;;;;;;5116222;28;20036;-64
2022/03/10 02:13:32;;;;;;;24.17;11.80;;;5.50;55.20;;;;;;5116028;28;20047;-64
2022/03/10 02:18:42;;;;;;;21.88;12.18;;;5.50;54.90;;;;;;5116159;28;20062;-64
2022/03/10 02:21:08;;;;;;;25.85;12.55;;;5.50;55.00;;;;;;5115855;28;20028;-64
2022/03/10 02:23:33;;;;;;;24.90;12.65;;;5.50;54.70;;;;;;5115924;28;20052;-64
2022/03/10 02:25:59;;;;;;;27.17;12.68;;;5.50;54.50;;;;;;5115664;28;20028;-64
2022/03/10 02:28:26;;;;;;;22.75;11.57;;;5.40;55.00;;;;;;5115668;28;20028;-64
2022/03/10 02:30:51;;;;;;;24.40;11.23;;;5.40;55.30;;;;;;5115690;28;20043;-64
2022/03/10 02:33:17;;;;;;;22.85;11.13;;;5.40;55.10;;;;;;5115616;28;20032;-64
2022/03/10 02:35:43;;;;;;;28.63;12.50;;;5.40;55.10;;;;;;5115564;28;20050;-64
2022/03/10 02:38:09;;;;;;;23.25;12.02;;;5.30;55.30;;;;;;5097539;28;20092;-64
2022/03/10 02:40:34;;;;;;;23.30;11.85;;;5.40;55.30;;;;;;5115492;28;20027;-64
2022/03/10 02:43:00;;;;;;;22.85;11.55;;;5.40;55.40;;;;;;5115437;28;20027;-64
2022/03/10 02:45:26;;;;;;;24.25;11.98;;;5.40;55.10;;;;;;5115375;28;20500;-64
2022/03/10 02:47:52;;;;;;;25.23;11.82;;;5.40;55.20;;;;;;5115336;28;20016;-64
2022/03/10 02:50:18;;;;;;;21.63;11.15;;;5.30;54.70;;;;;;5115233;28;20028;-64
2022/03/10 02:52:44;;;;;;;22.40;11.57;;;5.30;55.00;;;;;;5115272;28;20020;-64
2022/03/10 02:55:10;;;;;;;21.95;11.40;;;5.20;54.80;;;;;;5115202;28;20024;-64
2022/03/10 02:57:37;;;;;;;21.92;11.70;;;5.30;54.70;;;;;;5114996;28;20072;-64
2022/03/10 03:00:04;;;;;;;26.10;12.35;;;5.30;54.30;;;;;;5115102;28;20081;-64
2022/03/10 03:02:30;;;;;;;24.77;11.50;;;5.30;54.10;;;;;;5114982;28;20035;-64
2022/03/10 03:04:56;;;;;;;21.05;11.68;;;5.20;54.80;;;;;;5114993;28;20056;-64
2022/03/10 03:07:21;;;;;;;25.13;11.65;;;5.10;54.70;;;;;;5114918;28;20087;-64
2022/03/10 03:09:47;;;;;;;24.35;11.82;;;5.10;55.00;;;;;;5114834;28;20115;-64
2022/03/10 03:12:13;;;;;;;22.70;11.68;;;5.10;55.10;;;;;;5114834;28;20080;-64
2022/03/10 03:14:39;;;;;;;23.95;11.75;;;5.10;56.00;;;;;;5114864;28;20032;-64
2022/03/10 03:17:04;;;;;;;23.98;11.13;;;5.00;55.60;;;;;;5114760;28;20024;-64
2022/03/10 03:19:30;;;;;;;25.17;11.70;;;5.10;55.50;;;;;;5114843;28;20028;-64
2022/03/10 03:21:56;;;;;;;25.40;12.00;;;5.10;55.60;;;;;;5114683;28;20032;-64
2022/03/10 03:24:22;;;;;;;23.98;12.40;;;5.20;55.40;;;;;;5114582;28;20076;-64
2022/03/10 03:26:48;;;;;;;23.88;11.98;;;5.30;54.90;;;;;;5114666;28;20028;-64
2022/03/10 03:29:14;;;;;;;24.30;11.60;;;5.40;54.90;;;;;;5113607;28;20038;-64
2022/03/10 03:31:40;;;;;;;22.88;11.48;;;5.30;54.70;;;;;;5114477;28;20479;-64
2022/03/10 03:34:10;;;;;;;25.60;12.07;;;5.40;54.60;;;;;;5114451;28;20032;-64
2022/03/10 03:36:39;;;;;;;25.05;12.27;;;5.40;54.40;;;;;;5114460;28;20020;-64
2022/03/10 03:39:05;;;;;;;25.13;11.93;;;5.50;54.20;;;;;;5114355;28;20107;-64
2022/03/10 03:41:32;;;;;;;30.00;12.48;;;5.40;53.90;;;;;;5114304;28;20020;-64
2022/03/10 03:43:58;;;;;;;24.75;12.48;;;5.50;53.70;;;;;;5114255;28;20045;-64
2022/03/10 03:46:23;;;;;;;26.20;12.93;;;5.50;53.60;;;;;;5114226;28;20106;-64
2022/03/10 03:48:49;;;;;;;23.35;11.75;;;5.50;53.80;;;;;;5114094;28;20028;-64
2022/03/10 03:51:15;;;;;;;24.63;10.50;;;5.30;54.10;;;;;;5114258;28;20024;-64
2022/03/10 03:53:40;;;;;;;24.17;10.75;;;5.10;54.40;;;;;;5114195;28;20024;-64
2022/03/10 03:56:06;;;;;;;20.15;10.38;;;4.90;55.00;;;;;;5114165;28;20032;-64
2022/03/10 03:58:31;;;;;;;21.55;10.98;;;4.90;55.20;;;;;;5113897;28;20070;-64
2022/03/10 04:00:57;;;;;;;21.52;10.82;;;4.80;55.50;;;;;;5114092;28;20379;-64
2022/03/10 04:03:22;;;;;;;23.73;11.82;;;4.70;56.30;;;;;;5113946;28;20090;-64
2022/03/10 04:05:49;;;;;;;29.23;12.35;;;4.60;55.90;;;;;;5096100;28;20103;-64
2022/03/10 04:08:14;;;;;;;23.50;11.88;;;4.60;55.80;;;;;;5113742;28;20024;-64
2022/03/10 04:10:40;;;;;;;23.35;11.70;;;4.60;56.30;;;;;;5113791;28;20088;-64
2022/03/10 04:13:06;;;;;;;24.67;11.52;;;4.50;56.10;;;;;;5113761;28;20028;-64
2022/03/10 04:15:34;;;;;;;24.15;11.70;;;4.50;56.00;;;;;;5113728;28;20080;-64
2022/03/10 04:17:59;;;;;;;24.08;11.88;;;4.50;55.90;;;;;;5113689;28;20047;-64
2022/03/10 04:20:25;;;;;;;23.90;11.30;;;4.50;56.30;;;;;;5113450;28;20028;-64
2022/03/10 04:22:51;;;;;;;22.67;10.75;;;4.50;56.70;;;;;;5113601;28;20028;-64
2022/03/10 04:25:16;;;;;;;27.48;12.10;;;4.40;56.70;;;;;;5113502;28;20043;-64
2022/03/10 04:27:42;;;;;;;25.05;11.32;;;4.50;56.60;;;;;;5113678;28;20036;-64
2022/03/10 04:30:08;;;;;;;21.48;10.88;;;4.50;56.70;;;;;;5113554;28;20048;-64
2022/03/10 04:32:47;;;;;;;22.58;11.30;;;4.50;57.20;;;;;;5113514;28;20030;-64
2022/03/10 04:35:14;;;;;;;23.52;10.75;;;4.40;58.00;;;;;;5113495;28;20096;-64
2022/03/10 04:37:41;;;;;;;22.60;11.95;;;4.40;57.50;;;;;;5113438;28;20095;-64
2022/03/10 04:40:07;;;;;;;25.85;12.50;;;4.30;56.80;;;;;;5113173;28;20039;-64
2022/03/10 04:42:38;;;;;;;22.80;11.68;;;4.30;56.80;;;;;;5113410;28;20028;-64
2022/03/10 04:45:06;;;;;;;24.13;11.50;;;4.30;56.80;;;;;;5113401;28;20033;-64
2022/03/10 04:47:32;;;;;;;23.75;11.88;;;4.30;56.90;;;;;;5113404;28;20028;-64
2022/03/10 04:49:58;;;;;;;29.50;12.15;;;4.40;56.60;;;;;;5095501;28;20032;-64
2022/03/10 04:52:27;;;;;;;24.67;12.02;;;4.40;56.40;;;;;;5113416;28;20090;-64
2022/03/10 04:54:53;;;;;;;25.48;12.05;;;4.50;56.30;;;;;;5113260;28;20096;-64
2022/03/10 04:57:19;;;;;;;22.58;11.55;;;4.60;56.40;;;;;;5113012;28;20110;-64
2022/03/10 04:59:44;;;;;;;29.20;12.38;;;4.60;56.00;;;;;;5113205;28;20043;-64
2022/03/10 05:02:10;;;;;;;25.48;12.18;;;4.70;55.90;;;;;;5113182;28;20024;-64
2022/03/10 05:04:36;;;;;;;21.70;11.70;;;4.60;55.70;;;;;;5113343;28;20579;-64
2022/03/10 05:07:01;;;;;;;24.20;11.70;;;4.70;55.70;;;;;;5113180;28;20032;-64
2022/03/10 05:09:27;;;;;;;22.85;11.13;;;4.70;55.40;;;;;;5113109;28;20036;-63
2022/03/10 05:11:53;;;;;;;26.95;12.50;;;4.60;55.90;;;;;;5113107;28;20024;-64
2022/03/10 05:14:18;;;;;;;25.75;11.90;;;4.60;56.10;;;;;;5113102;28;20020;-64
2022/03/10 05:16:44;;;;;;;26.60;12.32;;;4.40;56.40;;;;;;5113047;28;20032;-64
2022/03/10 05:19:10;;;;;;;22.90;11.73;;;4.40;56.60;;;;;;5095234;28;20024;-64
2022/03/10 05:21:36;;;;;;;30.60;12.30;;;4.20;57.50;;;;;;5095156;28;20058;-64
2022/03/10 05:24:03;;;;;;;27.83;13.15;;;4.00;57.70;;;;;;5112930;28;20028;-64
2022/03/10 05:26:28;;;;;;;23.88;11.80;;;3.90;57.90;;;;;;5112955;28;20032;-64
2022/03/10 05:28:54;;;;;;;21.98;10.23;;;4.00;58.90;;;;;;5112885;28;20039;-64
2022/03/10 05:31:19;;;;;;;23.33;11.60;;;4.10;58.00;;;;;;5112962;28;20035;-64
2022/03/10 05:33:45;;;;;;;22.77;11.05;;;4.20;57.60;;;;;;5112937;28;20020;-64
2022/03/10 05:36:10;;;;;;;25.25;10.70;;;4.30;57.10;;;;;;5112867;28;20036;-64
2022/03/10 05:38:36;;;;;;;24.80;11.40;;;4.40;56.90;;;;;;5112849;28;20036;-63
2022/03/10 05:41:03;;;;;;;22.30;11.05;;;4.40;57.00;;;;;;5112836;28;20106;-64
2022/03/10 05:43:29;;;;;;;26.20;10.77;;;4.30;57.10;;;;;;5112819;28;20028;-64
2022/03/10 05:45:54;;;;;;;24.15;10.68;;;4.10;57.20;;;;;;5095211;28;20052;-63
2022/03/10 05:48:20;;;;;;;28.73;10.85;;;4.10;57.30;;;;;;5112636;28;20036;-64
2022/03/10 05:50:46;;;;;;;23.45;11.43;;;4.10;57.00;;;;;;5112845;28;20028;-64
2022/03/10 05:53:11;;;;;;;23.55;12.07;;;4.00;57.10;;;;;;5116442;28;20028;-64
2022/03/10 05:55:37;;;;;;;25.17;12.13;;;4.00;57.30;;;;;;5116374;28;20031;-64
2022/03/10 05:58:04;;;;;;;26.17;11.82;;;4.00;57.20;;;;;;5116176;28;20058;-64
2022/03/10 06:00:30;;;;;;;25.23;11.82;;;4.00;57.00;;;;;;5116370;28;20028;-64
2022/03/10 06:02:55;;;;;;;23.55;11.35;;;3.80;57.00;;;;;;5116205;28;20024;-64
2022/03/10 06:05:21;;;;;;;25.55;11.25;;;3.80;57.20;;;;;;5116143;28;20032;-64
2022/03/10 06:07:46;;;;;;;26.27;11.68;;;3.70;57.30;;;;;;5116165;28;20036;-63
2022/03/10 06:10:12;;;;;;;25.83;11.55;;;3.70;57.50;;;;;;5115974;28;20071;-64
2022/03/10 06:12:39;;;;;;;26.45;11.40;;;3.80;57.30;;;;;;5116091;28;20087;-64
2022/03/10 06:15:07;;;;;;;24.33;11.68;;;3.80;57.20;;;;;;5116054;28;20055;-64
2022/03/10 06:17:32;;;;;;;25.00;11.70;;;3.90;57.20;;;;;;5115962;28;20016;-64
2022/03/10 06:19:59;;;;;;;25.30;11.75;;;3.90;57.50;;;;;;5115910;28;20075;-64
2022/03/10 06:22:29;;;;;;;21.95;11.27;;;3.90;57.60;;;;;;5115890;28;20026;-64
2022/03/10 06:24:55;;;;;;;24.50;11.27;;;3.80;58.00;;;;;;5115780;28;20552;-64
2022/03/10 06:27:24;;;;;;;25.27;12.10;;;3.70;58.00;;;;;;5115729;28;20028;-64
2022/03/10 06:29:50;;;;;;;25.15;11.50;;;3.80;58.40;;;;;;5097732;28;20020;-64
2022/03/10 06:32:18;;;;;;;25.35;12.27;;;3.70;58.70;;;;;;5115696;28;20047;-64
2022/03/10 06:34:44;;;;;;;29.10;11.23;;;3.70;58.90;;;;;;5115617;28;20377;-64
2022/03/10 06:37:10;;;;;;;27.27;12.35;;;3.70;59.20;;;;;;5115584;28;20020;-64
2022/03/10 06:39:35;;;;;;;25.23;11.95;;;3.70;59.30;;;;;;5115528;28;20057;-64
2022/03/10 06:42:05;;;;;;;22.48;11.40;;;3.70;59.30;;;;;;5115474;28;20028;-64
2022/03/10 06:44:32;;;;;;;26.00;11.95;;;3.80;59.40;;;;;;5115457;28;20024;-64
2022/03/10 06:46:58;;;;;;;24.52;11.20;;;3.80;59.20;;;;;;5115388;28;20115;-64
2022/03/10 06:49:23;;;;;;;30.17;12.95;;;3.90;59.00;;;;;;5097341;28;20028;-64
2022/03/10 06:51:49;;;;;;;27.70;11.82;;;3.90;58.90;;;;;;5115305;28;20020;-64
2022/03/10 06:54:16;;;;;;;26.02;11.80;;;4.00;58.60;;;;;;5097308;28;20023;-64
2022/03/10 06:56:41;;;;;;;27.15;12.07;;;4.10;58.20;;;;;;5115115;28;20090;-64
2022/03/10 06:59:09;;;;;;;22.50;11.13;;;4.20;58.00;;;;;;5115336;28;20078;-64
2022/03/10 07:01:34;;;;;;;27.17;11.50;;;4.20;57.80;;;;;;5115080;28;20028;-64
2022/03/10 07:04:00;;;;;;;26.95;12.13;;;4.30;57.50;;;;;;5114944;28;20077;-64
2022/03/10 07:06:27;;;;;;;27.00;12.07;;;4.30;57.40;;;;;;5115089;28;20032;-64
2022/03/10 07:08:52;;;;;;;25.08;11.90;;;4.40;58.50;;;;;;5114895;28;20028;-64
2022/03/10 07:11:19;;;;;;;28.23;12.10;;;4.50;57.40;;;;;;5114947;28;20024;-64
2022/03/10 07:13:45;;;;;;;25.75;12.15;;;4.50;57.50;;;;;;5097215;28;20020;-64
2022/03/10 07:16:11;;;;;;;25.40;11.82;;;4.60;57.00;;;;;;5114822;28;20024;-64
2022/03/10 07:18:37;;;;;;;26.63;12.07;;;4.60;57.00;;;;;;5114745;28;20087;-64
2022/03/10 07:21:04;;;;;;;26.35;11.82;;;4.60;56.80;;;;;;5114723;28;20028;-64
2022/03/10 07:23:31;;;;;;;30.15;12.25;;;4.70;56.90;;;;;;5114615;28;20024;-64
2022/03/10 07:25:56;;;;;;;28.45;11.80;;;4.70;56.60;;;;;;5114531;28;20043;-64
2022/03/10 07:28:22;;;;;;;24.33;12.45;;;4.80;56.70;;;;;;5114494;28;20032;-64
2022/03/10 07:30:48;;;;;;;24.63;12.32;;;4.80;56.90;;;;;;5114540;28;20024;-64
2022/03/10 07:33:14;;;;;;;23.95;12.85;;;4.80;57.30;;;;;;5114514;28;20028;-64
2022/03/10 07:35:40;;;;;;;26.83;11.65;;;4.70;59.00;;;;;;5114471;28;20016;-64
2022/03/10 07:38:05;;;;;;;26.52;12.23;;;4.70;58.30;;;;;;5114422;28;20016;-64
2022/03/10 07:40:31;;;;;;;26.00;11.88;;;4.80;58.50;;;;;;5114492;28;20038;-64
2022/03/10 07:42:57;;;;;;;26.27;12.55;;;4.80;58.40;;;;;;5114425;28;20032;-64
2022/03/10 07:45:23;;;;;;;26.42;12.63;;;4.90;58.50;;;;;;5114270;28;20032;-64
2022/03/10 07:47:49;;;;;;;28.88;12.77;;;4.90;58.00;;;;;;5114239;28;20020;-64
2022/03/10 07:50:15;;;;;;;25.50;11.77;;;5.00;57.70;;;;;;5114101;28;20024;-64
2022/03/10 07:52:41;;;;;;;24.90;11.95;;;5.10;58.20;;;;;;5114149;28;20012;-64
2022/03/10 07:55:08;;;;;;;26.95;12.38;;;5.10;58.10;;;;;;5114122;28;20016;-64
2022/03/10 07:57:35;;;;;;;23.55;12.32;;;5.20;58.00;;;;;;5113910;28;20055;-64
2022/03/10 08:00:01;;;;;;;24.50;12.13;;;5.30;58.10;;;;;;5114055;28;20052;-64
2022/03/10 08:02:27;;;;;;;25.13;11.73;;;5.40;58.30;;;;;;5113958;28;20032;-64
2022/03/10 08:04:52;;;;;;;23.58;11.82;;;5.50;57.60;;;;;;5113922;28;20032;-64
2022/03/10 08:07:18;;;;;;;25.33;12.38;;;5.50;57.60;;;;;;5113913;28;20047;-64
2022/03/10 08:09:44;;;;;;;27.73;12.70;;;5.60;58.40;;;;;;5113714;28;20058;-64
2022/03/10 08:12:09;;;;;;;23.85;12.27;;;5.70;57.90;;;;;;5113788;28;20016;-64
2022/03/10 08:14:35;;;;;;;28.27;11.88;;;5.80;57.70;;;;;;5113336;28;20035;-64
2022/03/10 08:17:01;;;;;;;28.10;13.73;;;5.90;57.90;;;;;;5113861;28;20024;-64
2022/03/10 08:19:26;;;;;;;27.88;13.23;;;6.00;58.40;;;;;;5113704;28;20032;-64
2022/03/10 08:21:52;;;;;;;28.10;13.18;;;6.10;57.70;;;;;;5113678;28;20016;-64
2022/03/10 08:24:17;;;;;;;26.88;12.60;;;6.20;57.50;;;;;;5113519;28;20032;-64
2022/03/10 08:26:43;;;;;;;28.05;13.82;;;6.40;57.20;;;;;;5113671;28;20036;-64
2022/03/10 08:29:09;;;;;;;23.92;11.55;;;6.60;55.30;;;;;;5113484;28;20028;-65
2022/03/10 08:31:34;;;;;;;25.42;12.63;;;6.70;55.50;;;;;;5113542;28;20020;-65
2022/03/10 08:34:00;;;;;;;28.50;12.95;;;6.90;55.00;;;;;;5113576;28;20025;-64
2022/03/10 08:36:26;;;;;;;25.85;12.48;;;6.90;55.00;;;;;;5113490;28;20036;-65
2022/03/10 08:38:52;;;;;;;30.08;12.38;;;7.00;54.50;;;;;;5113385;28;20024;-65
2022/03/10 08:41:17;;;;;;;25.95;12.85;;;7.10;54.90;;;;;;5113499;28;20070;-64
2022/03/10 08:43:43;;;;;;;27.25;13.50;;;7.30;55.80;;;;;;5095458;28;20035;-64
2022/03/10 08:46:09;;;;;;;28.67;12.77;;;7.40;55.20;;;;;;5113365;28;20029;-64
2022/03/10 08:48:35;;;;;;;24.67;12.55;;;7.60;54.60;;;;;;5113298;28;20378;-64
2022/03/10 08:51:03;;;;;;;28.33;13.70;;;7.80;53.80;;;;;;5113304;28;20039;-64
2022/03/10 08:53:30;;;;;;;26.25;13.15;;;7.90;54.20;;;;;;5113283;28;20027;-64
2022/03/10 08:55:56;;;;;;;25.73;12.60;;;8.00;53.50;;;;;;5113263;28;20029;-64
2022/03/10 08:58:22;;;;;;;27.45;12.80;;;8.20;52.80;;;;;;5113124;28;20063;-64
2022/03/10 09:00:48;;;;;;;27.25;13.20;;;8.40;53.50;;;;;;5113207;28;20095;-64
2022/03/10 09:03:14;;;;;;;25.27;13.05;;;8.60;51.90;;;;;;5113208;28;20046;-64
2022/03/10 09:05:40;;;;;;;29.83;12.55;;;8.70;51.50;;;;;;5113174;28;20032;-64
2022/03/10 09:08:06;;;;;;;25.95;12.98;;;8.80;51.40;;;;;;5113293;28;20044;-64
2022/03/10 09:10:32;;;;;;;25.45;13.50;;;8.90;51.50;;;;;;5113090;28;20024;-64
2022/03/10 09:12:58;;;;;;;25.75;13.15;;;9.00;50.50;;;;;;5113158;28;20062;-64
2022/03/10 09:15:26;;;;;;;30.27;13.40;;;9.10;51.30;;;;;;5113068;28;20025;-64
2022/03/10 09:17:52;;;;;;;25.08;13.50;;;9.30;51.60;;;;;;5113082;28;20021;-64
2022/03/10 09:20:19;;;;;;;26.83;14.05;;;9.40;50.40;;;;;;5113061;28;20020;-64
2022/03/10 09:22:45;;;;;;;28.42;14.10;;;9.50;50.90;;;;;;5113018;28;20028;-64
2022/03/10 09:25:12;;;;;;;26.23;13.43;;;9.70;50.40;;;;;;5112943;28;20031;-64
2022/03/10 09:27:39;;;;;;;22.63;12.52;;;9.80;50.10;;;;;;5116125;28;20043;-64
2022/03/10 09:30:08;;;;;;;25.27;13.18;;;9.90;50.10;;;;;;5116870;28;20032;-64
2022/03/10 09:32:38;;;;;;;26.42;13.25;;;10.10;49.90;;;;;;5116807;28;20085;-64
2022/03/10 09:35:05;;;;;;;30.25;12.85;;;10.30;49.60;;;;;;5116799;28;20044;-64
2022/03/10 09:37:31;;;;;;;29.15;13.70;;;10.40;49.30;;;;;;5116781;28;20024;-64
2022/03/10 09:39:57;;;;;;;31.50;14.43;;;10.50;48.30;;;;;;5116685;28;20032;-64
2022/03/10 09:42:28;;;;;;;28.60;13.65;;;10.60;47.40;;;;;;5116741;28;20024;-64
2022/03/10 09:44:59;;;;;;;29.13;14.00;;;10.60;47.90;;;;;;5116671;28;20020;-64
2022/03/10 09:47:26;;;;;;;25.65;13.85;;;10.80;47.80;;;;;;5116542;28;20024;-64
2022/03/10 09:49:54;;;;;;;27.60;13.13;;;10.90;46.90;;;;;;5116454;28;20032;-64
2022/03/10 09:52:21;;;;;;;28.00;13.43;;;11.00;46.80;;;;;;5116415;28;20025;-64
2022/03/10 09:54:47;;;;;;;29.50;14.45;;;11.10;47.70;;;;;;5116396;28;20108;-64
2022/03/10 09:57:17;;;;;;;29.83;15.25;;;11.10;46.10;;;;;;5116148;28;20039;-64
2022/03/10 09:59:59;;;;;;;28.70;14.65;;;11.30;46.20;;;;;;5116321;28;20024;-64
2022/03/10 10:02:26;;;;;;;29.97;14.47;;;11.40;45.60;;;;;;5116302;28;20032;-64
2022/03/10 10:04:52;;;;;;;32.83;14.73;;;11.50;45.70;;;;;;5116223;28;20030;-64
2022/03/10 10:07:22;;;;;;;25.90;12.18;;;11.60;44.10;;;;;;5116192;28;20048;-64
2022/03/10 10:09:57;;;;;;;25.92;12.63;;;11.70;44.50;;;;;;5116044;28;20028;-64
2022/03/10 10:12:30;;;;;;;27.35;13.15;;;11.80;42.80;;;;;;5116118;28;20038;-64
2022/03/10 10:14:58;;;;;;;27.05;13.65;;;11.90;42.80;;;;;;5116012;28;20035;-64
2022/03/10 10:17:31;;;;;;;28.27;12.50;;;12.00;43.80;;;;;;5115950;28;20024;-64
2022/03/10 10:20:00;;;;;;;27.30;12.48;;;12.20;43.70;;;;;;5116067;28;20115;-63
2022/03/10 10:22:27;;;;;;;28.02;13.77;;;12.20;41.90;;;;;;5115867;28;20371;-64
2022/03/10 10:24:59;;;;;;;30.85;13.55;;;12.20;41.90;;;;;;5115856;28;20028;-64
2022/03/10 10:27:27;;;;;;;31.25;13.55;;;12.20;40.50;;;;;;5115798;28;20035;-64
2022/03/10 10:29:55;;;;;;;27.63;13.00;;;12.30;40.90;;;;;;5115682;28;20055;-64
2022/03/10 10:32:44;;;;;;;28.33;14.93;;;12.30;41.30;;;;;;5115643;28;20046;-64
2022/03/10 10:35:20;;;;;;;25.67;13.23;;;12.40;41.30;;;;;;5107589;28;20121;-64
2022/03/10 10:37:52;;;;;;;30.98;13.50;;;12.50;41.70;;;;;;5115183;28;20027;-64
2022/03/10 10:40:23;;;;;;;25.02;13.30;;;12.60;42.80;;;;;;5115548;28;20135;-64
2022/03/10 10:42:50;;;;;;;25.77;12.82;;;12.70;41.10;;;;;;5115551;28;20467;-64
2022/03/10 10:45:33;;;;;;;27.17;14.20;;;12.70;41.20;;;;;;5115546;28;20021;-64
2022/03/10 10:48:04;;;;;;;29.67;13.90;;;12.80;40.90;;;;;;5115379;28;20031;-64
2022/03/10 10:50:32;;;;;;;30.80;14.00;;;12.90;40.20;;;;;;5115228;28;20028;-64
2022/03/10 10:52:58;;;;;;;29.20;13.27;;;13.00;41.40;;;;;;5115390;28;20059;-64
2022/03/10 10:55:35;;;;;;;26.95;13.07;;;13.00;41.30;;;;;;5115208;28;20043;-64
2022/03/10 10:58:05;;;;;;;30.38;15.27;;;13.10;41.20;;;;;;5115103;28;20063;-64
2022/03/10 11:00:40;;;;;;;29.38;13.35;;;13.20;40.50;;;;;;5115095;28;20016;-64
2022/03/10 11:03:31;;;;;;;26.15;13.00;;;13.20;41.40;;;;;;5115157;28;20028;-64
2022/03/10 11:05:57;;;;;;;33.10;14.57;;;13.20;40.50;;;;;;5115061;28;20020;-64
2022/03/10 11:08:25;;;;;;;26.35;12.50;;;13.30;40.40;;;;;;5114889;28;20451;-64
2022/03/10 11:10:51;;;;;;;25.98;13.23;;;13.40;40.40;;;;;;5114887;28;20020;-64
2022/03/10 11:13:17;;;;;;;29.88;14.35;;;13.50;40.80;;;;;;5114878;28;20364;-64
2022/03/10 11:15:46;;;;;;;27.27;13.10;;;13.60;39.80;;;;;;5114798;28;20039;-64
2022/03/10 11:18:13;;;;;;;26.15;13.60;;;13.70;41.10;;;;;;5114800;28;20062;-64
2022/03/10 11:20:42;;;;;;;24.90;13.18;;;13.80;39.40;;;;;;5114718;28;20050;-63
2022/03/10 11:23:15;;;;;;;28.35;13.27;;;13.90;38.90;;;;;;5114702;28;20028;-64
2022/03/10 11:25:55;;;;;;;31.17;14.60;;;13.90;39.00;;;;;;5114598;28;20028;-64
2022/03/10 11:28:27;;;;;;;26.90;13.68;;;13.90;39.40;;;;;;5114772;28;20016;-64
2022/03/10 11:31:00;;;;;;;23.45;12.52;;;14.00;40.50;;;;;;5114731;28;20035;-64
2022/03/10 11:33:38;;;;;;;24.42;12.70;;;14.10;40.20;;;;;;5114558;28;20020;-64
2022/03/10 11:36:20;;;;;;;26.55;12.80;;;14.20;40.10;;;;;;5114460;28;20031;-64
2022/03/10 11:38:56;;;;;;;25.50;13.50;;;14.30;38.70;;;;;;5114431;28;20043;-64
2022/03/10 11:41:40;;;;;;;25.67;12.18;;;14.30;38.80;;;;;;5114462;28;20028;-64
2022/03/10 11:44:06;;;;;;;25.63;14.50;;;14.40;39.50;;;;;;5114388;28;20016;-64
2022/03/10 11:46:33;;;;;;;27.40;13.63;;;14.50;39.10;;;;;;5114218;28;20019;-64
2022/03/10 11:49:15;;;;;;;31.10;13.68;;;14.50;38.00;;;;;;5113413;28;20034;-64
2022/03/10 11:51:53;;;;;;;27.10;13.70;;;14.50;38.10;;;;;;5114211;28;20020;-64
2022/03/10 11:54:22;;;;;;;25.77;13.00;;;14.70;38.50;;;;;;5114117;28;20020;-64
2022/03/10 11:56:51;;;;;;;25.50;14.00;;;14.80;37.30;;;;;;5113921;28;20032;-64
2022/03/10 11:59:18;;;;;;;26.48;13.55;;;14.70;37.80;;;;;;5114061;28;20042;-64
2022/03/10 12:01:44;;;;;;;25.20;13.23;;;14.80;38.30;;;;;;5113971;28;20096;-64
2022/03/10 12:04:17;;;;;;;26.98;13.15;;;14.90;38.00;;;;;;5113864;28;20024;-64
2022/03/10 12:06:54;;;;;;;25.40;12.73;;;15.00;37.70;;;;;;5113866;28;20085;-64
2022/03/10 12:09:29;;;;;;;25.85;14.05;;;15.20;37.30;;;;;;5113822;28;20020;-64
2022/03/10 12:12:13;;;;;;;28.88;14.15;;;15.30;36.60;;;;;;5113903;28;20093;-64
2022/03/10 12:14:38;;;;;;;26.83;13.82;;;15.30;35.60;;;;;;5113792;28;20052;-64
2022/03/10 12:17:05;;;;;;;26.80;13.48;;;15.20;35.80;;;;;;5113776;28;20027;-64
2022/03/10 12:20:08;;;;;;;23.40;12.98;;;15.30;36.00;;;;;;5113704;28;20032;-64
2022/03/10 12:22:36;;;;;;;28.35;14.02;;;15.40;35.40;;;;;;5113583;28;20032;-63
2022/03/10 12:25:22;;;;;;;26.05;13.73;;;15.50;36.90;;;;;;5113516;28;20032;-64
2022/03/10 12:27:55;;;;;;;26.73;14.43;;;15.50;36.20;;;;;;5113713;28;20032;-64
2022/03/10 12:30:26;;;;;;;25.38;12.88;;;15.50;35.30;;;;;;5113486;28;20028;-64
2022/03/10 12:32:54;;;;;;;26.17;13.73;;;15.60;36.30;;;;;;5113661;28;20040;-64
2022/03/10 12:35:22;;;;;;;23.27;12.15;;;15.50;35.00;;;;;;5113495;28;20027;-64
2022/03/10 12:37:49;;;;;;;26.23;13.32;;;15.50;35.70;;;;;;5113487;28;20024;-64
2022/03/10 12:40:23;;;;;;;25.50;12.93;;;15.50;35.60;;;;;;5113470;28;20031;-63